createdAt,value
2023-07-18T00:00:42.401Z,624.00
2023-07-18T00:01:42.385Z,628.00
2023-07-18T00:02:42.448Z,627.00
2023-07-18T00:03:42.446Z,617.00
2023-07-18T00:04:42.329Z,610.00
2023-07-18T00:05:42.748Z,612.00
2023-07-18T00:06:42.318Z,607.00
2023-07-18T00:07:42.337Z,608.00
2023-07-18T00:08:42.304Z,608.00
2023-07-18T00:09:42.319Z,612.00
2023-07-18T00:10:42.306Z,623.00
2023-07-18T00:11:42.281Z,630.00
2023-07-18T00:12:42.274Z,624.00
2023-07-18T00:13:42.299Z,632.00
2023-07-18T00:14:42.296Z,634.00
2023-07-18T00:15:42.285Z,636.00
2023-07-18T00:16:42.290Z,639.00
2023-07-18T00:17:42.341Z,632.00
2023-07-18T00:18:42.343Z,627.00
2023-07-18T00:19:42.362Z,621.00
2023-07-18T00:20:42.367Z,611.00
2023-07-18T00:21:42.398Z,586.00
2023-07-18T00:22:42.446Z,591.00
2023-07-18T00:23:42.446Z,585.00
2023-07-18T00:24:42.445Z,580.00
2023-07-18T00:25:42.531Z,591.00
2023-07-18T00:26:42.496Z,583.00
2023-07-18T00:27:42.503Z,580.00
2023-07-18T00:28:42.519Z,584.00
2023-07-18T00:29:42.557Z,600.00
2023-07-18T00:30:42.568Z,598.00
2023-07-18T00:31:42.626Z,587.00
2023-07-18T00:32:42.699Z,593.00
2023-07-18T00:33:42.667Z,600.00
2023-07-18T00:34:42.637Z,602.00
2023-07-18T00:35:42.628Z,598.00
2023-07-18T00:36:42.664Z,598.00
2023-07-18T00:37:42.668Z,606.00
2023-07-18T00:38:42.705Z,600.00
2023-07-18T00:39:42.727Z,613.00
2023-07-18T00:40:42.741Z,624.00
2023-07-18T00:41:42.767Z,630.00
2023-07-18T00:42:42.785Z,639.00
2023-07-18T00:43:42.770Z,637.00
2023-07-18T00:44:42.813Z,645.00
2023-07-18T00:45:42.847Z,645.00
2023-07-18T00:46:42.922Z,641.00
2023-07-18T00:47:42.944Z,640.00
2023-07-18T00:48:42.892Z,637.00
2023-07-18T00:49:42.914Z,642.00
2023-07-18T00:50:42.977Z,648.00
2023-07-18T00:51:42.953Z,642.00
2023-07-18T00:52:42.985Z,650.00
2023-07-18T00:53:43.161Z,645.00
2023-07-18T00:54:43.084Z,642.00
2023-07-18T00:55:43.047Z,641.00
2023-07-18T00:56:43.089Z,650.00
2023-07-18T00:57:43.093Z,654.00
2023-07-18T00:58:43.099Z,662.00
2023-07-18T00:59:43.125Z,651.00
2023-07-18T01:00:43.119Z,641.00
2023-07-18T01:01:43.180Z,631.00
2023-07-18T01:02:43.271Z,629.00
2023-07-18T01:03:43.233Z,624.00
2023-07-18T01:04:43.201Z,618.00
2023-07-18T01:05:43.238Z,605.00
2023-07-18T01:06:43.258Z,606.00
2023-07-18T01:07:43.255Z,601.00
2023-07-18T01:08:43.265Z,599.00
2023-07-18T01:09:43.286Z,591.00
2023-07-18T01:10:43.304Z,588.00
2023-07-18T01:11:43.339Z,586.00
2023-07-18T01:12:43.351Z,582.00
2023-07-18T01:13:43.373Z,569.00
2023-07-18T01:14:43.384Z,555.00
2023-07-18T01:15:43.440Z,546.00
2023-07-18T01:16:43.422Z,538.00
2023-07-18T01:17:43.459Z,541.00
2023-07-18T01:18:43.473Z,550.00
2023-07-18T01:19:43.478Z,565.00
2023-07-18T01:20:43.506Z,557.00
2023-07-18T01:21:43.518Z,563.00
2023-07-18T01:22:43.584Z,580.00
2023-07-18T01:23:43.556Z,577.00
2023-07-18T01:24:43.583Z,586.00
2023-07-18T01:25:43.625Z,596.00
2023-07-18T01:26:43.630Z,609.00
2023-07-18T01:27:43.644Z,615.00
2023-07-18T01:28:43.651Z,611.00
2023-07-18T01:29:43.719Z,610.00
2023-07-18T01:30:43.702Z,604.00
2023-07-18T01:31:43.815Z,611.00
2023-07-18T01:32:43.787Z,607.00
2023-07-18T01:33:43.791Z,617.00
2023-07-18T01:34:43.827Z,620.00
2023-07-18T01:35:43.844Z,616.00
2023-07-18T01:36:43.849Z,598.00
2023-07-18T01:37:43.845Z,599.00
2023-07-18T01:38:43.903Z,593.00
2023-07-18T01:39:43.903Z,599.00
2023-07-18T01:40:43.934Z,592.00
2023-07-18T01:41:43.941Z,588.00
2023-07-18T01:42:43.982Z,589.00
2023-07-18T01:43:43.989Z,587.00
2023-07-18T01:44:44.056Z,588.00
2023-07-18T01:45:44.038Z,577.00
2023-07-18T01:46:44.107Z,574.00
2023-07-18T01:47:44.131Z,572.00
2023-07-18T01:48:44.112Z,577.00
2023-07-18T01:49:44.149Z,585.00
2023-07-18T01:50:44.181Z,584.00
2023-07-18T01:51:44.175Z,595.00
2023-07-18T01:52:44.185Z,600.00
2023-07-18T01:53:44.227Z,597.00
2023-07-18T01:54:44.348Z,607.00
2023-07-18T01:55:44.243Z,612.00
2023-07-18T01:56:44.276Z,605.00
2023-07-18T01:57:44.311Z,604.00
2023-07-18T01:58:44.325Z,607.00
2023-07-18T01:59:44.366Z,618.00
2023-07-18T02:00:44.417Z,607.00
2023-07-18T02:01:44.391Z,607.00
2023-07-18T02:02:44.527Z,591.00
2023-07-18T02:03:44.453Z,588.00
2023-07-18T02:04:44.516Z,576.00
2023-07-18T02:05:44.515Z,574.00
2023-07-18T02:06:44.552Z,552.00
2023-07-18T02:07:44.602Z,547.00
2023-07-18T02:08:44.607Z,532.00
2023-07-18T02:09:44.620Z,525.00
2023-07-18T02:10:44.633Z,507.00
2023-07-18T02:11:44.663Z,499.00
2023-07-18T02:12:44.716Z,503.00
2023-07-18T02:13:44.758Z,500.00
2023-07-18T02:14:44.766Z,506.00
2023-07-18T02:15:44.776Z,500.00
2023-07-18T02:16:44.857Z,504.00
2023-07-18T02:17:45.047Z,501.00
2023-07-18T02:18:44.885Z,500.00
2023-07-18T02:19:44.921Z,502.00
2023-07-18T02:20:44.984Z,504.00
2023-07-18T02:21:45.012Z,500.00
2023-07-18T02:22:45.100Z,502.00
2023-07-18T02:23:47.160Z,500.00
2023-07-18T02:24:45.049Z,500.00
2023-07-18T02:25:45.029Z,500.00
2023-07-18T02:26:45.011Z,499.00
2023-07-18T02:27:45.006Z,501.00
2023-07-18T02:28:45.035Z,500.00
2023-07-18T02:29:45.002Z,505.00
2023-07-18T02:30:45.040Z,504.00
2023-07-18T02:31:44.975Z,506.00
2023-07-18T02:32:45.091Z,500.00
2023-07-18T02:33:44.976Z,504.00
2023-07-18T02:34:44.955Z,511.00
2023-07-18T02:35:44.946Z,522.00
2023-07-18T02:36:44.932Z,528.00
2023-07-18T02:37:44.944Z,522.00
2023-07-18T02:38:44.935Z,516.00
2023-07-18T02:39:44.913Z,512.00
2023-07-18T02:40:44.945Z,513.00
2023-07-18T02:41:44.909Z,519.00
2023-07-18T02:42:44.894Z,502.00
2023-07-18T02:43:44.893Z,513.00
2023-07-18T02:44:44.918Z,511.00
2023-07-18T02:45:44.880Z,508.00
2023-07-18T02:46:44.922Z,507.00
2023-07-18T02:47:44.938Z,507.00
2023-07-18T02:48:44.853Z,516.00
2023-07-18T02:49:44.855Z,508.00
2023-07-18T02:50:44.860Z,506.00
2023-07-18T02:51:44.861Z,503.00
2023-07-18T02:52:44.819Z,504.00
2023-07-18T02:53:44.824Z,506.00
2023-07-18T02:54:44.817Z,515.00
2023-07-18T02:55:44.835Z,502.00
2023-07-18T02:56:44.820Z,507.00
2023-07-18T02:57:44.791Z,503.00
2023-07-18T02:58:44.790Z,506.00
2023-07-18T02:59:44.777Z,504.00
2023-07-18T03:00:44.780Z,506.00
2023-07-18T03:01:44.821Z,501.00
2023-07-18T03:02:44.836Z,502.00
2023-07-18T03:03:44.772Z,512.00
2023-07-18T03:04:44.756Z,517.00
2023-07-18T03:05:44.748Z,524.00
2023-07-18T03:06:44.720Z,520.00
2023-07-18T03:07:44.730Z,533.00
2023-07-18T03:08:44.720Z,544.00
2023-07-18T03:09:44.741Z,545.00
2023-07-18T03:10:44.738Z,546.00
2023-07-18T03:11:44.705Z,555.00
2023-07-18T03:12:44.712Z,570.00
2023-07-18T03:13:44.758Z,590.00
2023-07-18T03:14:44.697Z,598.00
2023-07-18T03:15:44.668Z,594.00
2023-07-18T03:16:44.701Z,585.00
2023-07-18T03:17:44.723Z,585.00
2023-07-18T03:18:44.680Z,589.00
2023-07-18T03:19:44.665Z,591.00
2023-07-18T03:20:44.671Z,595.00
2023-07-18T03:21:44.791Z,617.00
2023-07-18T03:22:44.802Z,629.00
2023-07-18T03:23:44.796Z,630.00
2023-07-18T03:24:44.842Z,644.00
2023-07-18T03:25:44.890Z,648.00
2023-07-18T03:26:44.930Z,665.00
2023-07-18T03:27:44.957Z,684.00
2023-07-18T03:28:44.989Z,698.00
2023-07-18T03:29:45.140Z,722.00
2023-07-18T03:30:45.083Z,741.00
2023-07-18T03:31:45.144Z,772.00
2023-07-18T03:32:45.185Z,795.00
2023-07-18T03:33:45.235Z,809.00
2023-07-18T03:34:45.253Z,831.00
2023-07-18T03:35:45.297Z,824.00
2023-07-18T03:36:45.318Z,825.00
2023-07-18T03:37:45.344Z,849.00
2023-07-18T03:38:45.396Z,848.00
2023-07-18T03:39:45.432Z,849.00
2023-07-18T03:40:45.479Z,838.00
2023-07-18T03:41:45.537Z,850.00
2023-07-18T03:42:45.548Z,840.00
2023-07-18T03:43:45.613Z,855.00
2023-07-18T03:44:45.651Z,843.00
2023-07-18T03:45:45.708Z,822.00
2023-07-18T03:46:45.775Z,825.00
2023-07-18T03:47:45.805Z,838.00
2023-07-18T03:48:45.841Z,820.00
2023-07-18T03:49:45.860Z,795.00
2023-07-18T03:50:45.894Z,787.00
2023-07-18T03:51:45.917Z,791.00
2023-07-18T03:52:46.021Z,762.00
2023-07-18T03:53:46.009Z,748.00
2023-07-18T03:54:46.054Z,738.00
2023-07-18T03:55:46.099Z,737.00
2023-07-18T03:56:46.143Z,729.00
2023-07-18T03:57:46.179Z,731.00
2023-07-18T03:58:46.218Z,715.00
2023-07-18T03:59:46.262Z,691.00
2023-07-18T04:00:46.296Z,681.00
2023-07-18T04:01:46.341Z,663.00
2023-07-18T04:02:47.217Z,665.00
2023-07-18T04:03:46.470Z,657.00
2023-07-18T04:04:46.454Z,663.00
2023-07-18T04:05:46.505Z,653.00
2023-07-18T04:06:46.535Z,660.00
2023-07-18T04:07:46.610Z,656.00
2023-07-18T04:08:46.649Z,654.00
2023-07-18T04:09:46.687Z,660.00
2023-07-18T04:10:46.749Z,649.00
2023-07-18T04:11:46.812Z,655.00
2023-07-18T04:12:46.825Z,652.00
2023-07-18T04:13:46.906Z,645.00
2023-07-18T04:14:46.926Z,650.00
2023-07-18T04:15:47.002Z,648.00
2023-07-18T04:16:47.033Z,639.00
2023-07-18T04:17:47.064Z,652.00
2023-07-18T04:18:47.077Z,654.00
2023-07-18T04:19:47.131Z,650.00
2023-07-18T04:20:47.177Z,655.00
2023-07-18T04:21:47.262Z,656.00
2023-07-18T04:22:47.330Z,645.00
2023-07-18T04:23:47.319Z,649.00
2023-07-18T04:24:47.373Z,651.00
2023-07-18T04:25:47.426Z,661.00
2023-07-18T04:26:47.455Z,660.00
2023-07-18T04:27:47.531Z,659.00
2023-07-18T04:28:47.558Z,663.00
2023-07-18T04:29:47.606Z,665.00
2023-07-18T04:30:47.649Z,683.00
2023-07-18T04:31:47.704Z,685.00
2023-07-18T04:32:47.755Z,679.00
2023-07-18T04:33:47.778Z,690.00
2023-07-18T04:34:47.851Z,695.00
2023-07-18T04:35:47.899Z,695.00
2023-07-18T04:36:47.930Z,684.00
2023-07-18T04:37:47.980Z,669.00
2023-07-18T04:38:47.990Z,692.00
2023-07-18T04:39:48.023Z,691.00
2023-07-18T04:40:48.090Z,662.00
2023-07-18T04:41:55.136Z,671.00
2023-07-18T04:42:49.112Z,671.00
2023-07-18T04:43:48.104Z,674.00
2023-07-18T04:44:48.101Z,677.00
2023-07-18T04:45:48.174Z,691.00
2023-07-18T04:46:48.125Z,702.00
2023-07-18T04:47:48.087Z,715.00
2023-07-18T04:48:48.068Z,697.00
2023-07-18T04:49:48.051Z,691.00
2023-07-18T04:50:48.063Z,715.00
2023-07-18T04:51:48.095Z,714.00
2023-07-18T04:52:48.112Z,707.00
2023-07-18T04:53:48.150Z,718.00
2023-07-18T04:54:48.194Z,726.00
2023-07-18T04:55:48.250Z,735.00
2023-07-18T04:56:48.304Z,735.00
2023-07-18T04:57:48.305Z,725.00
2023-07-18T04:58:48.561Z,745.00
2023-07-18T04:59:48.529Z,723.00
2023-07-18T05:00:48.574Z,729.00
2023-07-18T05:01:48.506Z,750.00
2023-07-18T05:02:49.493Z,757.00
2023-07-18T05:03:57.451Z,748.00
2023-07-18T05:04:49.529Z,749.00
2023-07-18T05:05:48.543Z,751.00
2023-07-18T05:06:48.551Z,753.00
2023-07-18T05:07:48.562Z,760.00
2023-07-18T05:08:48.514Z,756.00
2023-07-18T05:09:49.432Z,757.00
2023-07-18T05:10:48.575Z,779.00
2023-07-18T05:11:48.566Z,786.00
2023-07-18T05:12:48.494Z,814.00
2023-07-18T05:13:49.411Z,813.00
2023-07-18T05:14:48.546Z,830.00
2023-07-18T05:15:48.514Z,835.00
2023-07-18T05:16:48.557Z,832.00
2023-07-18T05:17:48.583Z,831.00
2023-07-18T05:18:48.536Z,823.00
2023-07-18T05:19:48.510Z,847.00
2023-07-18T05:20:48.487Z,828.00
2023-07-18T05:21:48.580Z,828.00
2023-07-18T05:22:48.582Z,864.00
2023-07-18T05:23:48.423Z,839.00
2023-07-18T05:24:48.531Z,841.00
2023-07-18T05:25:48.560Z,873.00
2023-07-18T05:26:48.513Z,850.00
2023-07-18T05:27:48.496Z,881.00
2023-07-18T05:28:48.445Z,877.00
2023-07-18T05:29:48.514Z,898.00
2023-07-18T05:30:48.542Z,925.00
2023-07-18T05:31:48.578Z,941.00
2023-07-18T05:32:48.621Z,978.00
2023-07-18T05:33:48.510Z,974.00
2023-07-18T05:34:48.566Z,1008.00
2023-07-18T05:35:48.586Z,992.00
2023-07-18T05:36:48.500Z,1008.00
2023-07-18T05:37:48.530Z,1021.00
2023-07-18T05:38:48.496Z,1037.00
2023-07-18T05:39:48.612Z,1038.00
2023-07-18T05:40:49.427Z,1058.00
2023-07-18T05:41:49.416Z,1079.00
2023-07-18T05:42:49.438Z,1068.00
2023-07-18T05:43:48.586Z,1109.00
2023-07-18T05:44:48.541Z,1139.00
2023-07-18T05:45:48.945Z,1165.00
2023-07-18T05:46:48.599Z,1159.00
2023-07-18T05:47:48.645Z,1189.00
2023-07-18T05:48:48.615Z,1188.00
2023-07-18T05:49:48.648Z,1192.00
2023-07-18T05:50:48.686Z,1178.00
2023-07-18T05:51:48.681Z,1188.00
2023-07-18T05:52:48.844Z,1187.00
2023-07-18T05:53:48.944Z,1172.00
2023-07-18T05:54:49.520Z,1172.00
2023-07-18T05:55:48.911Z,1190.00
2023-07-18T05:56:49.443Z,1176.00
2023-07-18T05:57:48.951Z,1186.00
2023-07-18T05:58:48.984Z,1221.00
2023-07-18T05:59:49.015Z,1207.00
2023-07-18T06:00:49.133Z,1149.00
2023-07-18T06:01:49.123Z,1164.00
2023-07-18T06:02:49.131Z,1199.00
2023-07-18T06:03:49.174Z,1273.00
2023-07-18T06:04:49.199Z,1227.00
2023-07-18T06:05:49.261Z,1233.00
2023-07-18T06:06:49.313Z,1240.00
2023-07-18T06:07:49.347Z,1276.00
2023-07-18T06:08:49.395Z,1218.00
2023-07-18T06:09:49.434Z,1252.00
2023-07-18T06:10:49.492Z,1262.00
2023-07-18T06:11:49.574Z,1298.00
2023-07-18T06:12:49.641Z,1351.00
2023-07-18T06:13:49.614Z,1467.00
2023-07-18T06:14:49.673Z,1463.00
2023-07-18T06:15:49.741Z,1509.00
2023-07-18T06:16:49.787Z,1552.00
2023-07-18T06:17:49.847Z,1569.00
2023-07-18T06:18:49.901Z,1555.00
2023-07-18T06:19:49.942Z,1582.00
2023-07-18T06:20:50.061Z,1587.00
2023-07-18T06:21:50.076Z,1578.00
2023-07-18T06:22:50.176Z,1562.00
2023-07-18T06:23:50.205Z,1577.00
2023-07-18T06:24:50.266Z,1558.00
2023-07-18T06:25:50.299Z,1510.00
2023-07-18T06:26:50.676Z,1514.00
2023-07-18T06:27:50.429Z,1464.00
2023-07-18T06:28:52.104Z,1477.00
2023-07-18T06:29:50.488Z,1482.00
2023-07-18T06:30:50.502Z,1510.00
2023-07-18T06:31:50.552Z,1498.00
2023-07-18T06:32:50.466Z,1490.00
2023-07-18T06:33:50.443Z,1482.00
2023-07-18T06:34:50.439Z,1465.00
2023-07-18T06:35:50.437Z,1444.00
2023-07-18T06:36:50.450Z,1442.00
2023-07-18T06:37:50.449Z,1440.00
2023-07-18T06:38:50.426Z,1405.00
2023-07-18T06:39:50.433Z,1423.00
2023-07-18T06:40:50.418Z,1430.00
2023-07-18T06:41:50.383Z,1421.00
2023-07-18T06:42:50.406Z,1382.00
2023-07-18T06:43:50.394Z,1404.00
2023-07-18T06:44:50.393Z,1402.00
2023-07-18T06:45:50.360Z,1409.00
2023-07-18T06:46:50.426Z,1422.00
2023-07-18T06:47:50.400Z,1391.00
2023-07-18T06:48:50.361Z,1390.00
2023-07-18T06:49:50.327Z,1391.00
2023-07-18T06:50:50.350Z,1404.00
2023-07-18T06:51:50.320Z,1382.00
2023-07-18T06:52:50.330Z,1395.00
2023-07-18T06:53:50.365Z,1382.00
2023-07-18T06:54:50.302Z,1378.00
2023-07-18T06:55:50.306Z,1365.00
2023-07-18T06:56:50.323Z,1367.00
2023-07-18T06:57:50.296Z,1381.00
2023-07-18T06:58:50.303Z,1384.00
2023-07-18T06:59:50.277Z,1367.00
2023-07-18T07:00:50.348Z,1384.00
2023-07-18T07:01:50.262Z,1408.00
2023-07-18T07:02:50.354Z,1412.00
2023-07-18T07:03:50.360Z,1391.00
2023-07-18T07:04:50.252Z,1370.00
2023-07-18T07:05:50.233Z,1363.00
2023-07-18T07:06:50.227Z,1351.00
2023-07-18T07:07:50.259Z,1331.00
2023-07-18T07:08:50.275Z,1350.00
2023-07-18T07:09:50.223Z,1320.00
2023-07-18T07:10:50.205Z,1322.00
2023-07-18T07:11:50.183Z,1305.00
2023-07-18T07:12:50.175Z,1283.00
2023-07-18T07:13:50.200Z,1296.00
2023-07-18T07:14:50.181Z,1271.00
2023-07-18T07:15:50.181Z,1279.00
2023-07-18T07:16:50.248Z,1278.00
2023-07-18T07:17:50.201Z,1284.00
2023-07-18T07:18:50.165Z,1258.00
2023-07-18T07:19:50.178Z,1224.00
2023-07-18T07:20:50.145Z,1230.00
2023-07-18T07:21:50.112Z,1235.00
2023-07-18T07:22:50.193Z,1225.00
2023-07-18T07:23:50.242Z,1201.00
2023-07-18T07:24:50.268Z,1195.00
2023-07-18T07:25:50.355Z,1200.00
2023-07-18T07:26:50.391Z,1185.00
2023-07-18T07:27:50.440Z,1175.00
2023-07-18T07:28:50.472Z,1170.00
2023-07-18T07:29:50.522Z,1152.00
2023-07-18T07:30:50.575Z,1160.00
2023-07-18T07:31:50.662Z,1160.00
2023-07-18T07:32:50.809Z,1148.00
2023-07-18T07:33:50.905Z,1140.00
2023-07-18T07:34:51.012Z,1115.00
2023-07-18T07:35:51.172Z,1133.00
2023-07-18T07:36:51.297Z,1106.00
2023-07-18T07:37:51.438Z,1111.00
2023-07-18T07:38:51.543Z,1095.00
2023-07-18T07:39:51.718Z,1102.00
2023-07-18T07:40:51.816Z,1091.00
2023-07-18T07:41:51.932Z,1073.00
2023-07-18T07:42:52.009Z,1051.00
2023-07-18T07:43:52.241Z,1045.00
2023-07-18T07:44:52.310Z,1036.00
2023-07-18T07:45:52.417Z,1031.00
2023-07-18T07:46:52.605Z,1037.00
2023-07-18T07:47:52.640Z,1026.00
2023-07-18T07:48:52.740Z,1019.00
2023-07-18T07:49:52.846Z,1008.00
2023-07-18T07:50:52.954Z,1003.00
2023-07-18T07:51:53.037Z,992.00
2023-07-18T07:52:53.115Z,992.00
2023-07-18T07:53:53.250Z,986.00
2023-07-18T07:54:53.275Z,989.00
2023-07-18T07:55:53.304Z,1017.00
2023-07-18T07:56:53.342Z,1028.00
2023-07-18T07:57:53.378Z,1047.00
2023-07-18T07:59:09.275Z,1051.00
2023-07-18T07:59:54.416Z,1052.00
2023-07-18T08:00:53.413Z,1054.00
2023-07-18T08:01:54.007Z,1064.00
2023-07-18T08:02:53.443Z,1074.00
2023-07-18T08:03:53.389Z,1081.00
2023-07-18T08:04:53.469Z,1094.00
2023-07-18T08:05:53.378Z,1111.00
2023-07-18T08:06:53.361Z,1117.00
2023-07-18T08:07:53.384Z,1125.00
2023-07-18T08:08:53.354Z,1122.00
2023-07-18T08:09:53.368Z,1130.00
2023-07-18T08:10:53.369Z,1144.00
2023-07-18T08:11:53.408Z,1120.00
2023-07-18T08:12:53.431Z,1103.00
2023-07-18T08:13:53.487Z,1118.00
2023-07-18T08:14:53.514Z,1116.00
2023-07-18T08:15:53.618Z,1118.00
2023-07-18T08:16:53.612Z,1122.00
2023-07-18T08:17:53.662Z,1125.00
2023-07-18T08:18:53.724Z,1134.00
2023-07-18T08:19:53.716Z,1141.00
2023-07-18T08:20:53.757Z,1132.00
2023-07-18T08:21:53.779Z,1093.00
2023-07-18T08:22:53.813Z,1112.00
2023-07-18T08:23:53.888Z,1116.00
2023-07-18T08:24:53.904Z,1100.00
2023-07-18T08:25:53.906Z,1089.00
2023-07-18T08:26:53.930Z,1108.00
2023-07-18T08:27:53.970Z,1094.00
2023-07-18T08:28:54.021Z,1101.00
2023-07-18T08:29:54.048Z,1102.00
2023-07-18T08:30:54.069Z,1103.00
2023-07-18T08:31:54.141Z,1097.00
2023-07-18T08:32:54.230Z,1118.00
2023-07-18T08:33:54.145Z,1093.00
2023-07-18T08:34:54.193Z,1110.00
2023-07-18T08:35:54.224Z,1094.00
2023-07-18T08:36:54.231Z,1082.00
2023-07-18T08:37:54.249Z,1088.00
2023-07-18T08:38:54.282Z,1125.00
2023-07-18T08:39:54.289Z,1106.00
2023-07-18T08:40:54.307Z,1128.00
2023-07-18T08:41:54.324Z,1116.00
2023-07-18T08:42:54.359Z,1161.00
2023-07-18T08:43:54.373Z,1167.00
2023-07-18T08:44:54.407Z,1195.00
2023-07-18T08:45:54.444Z,1208.00
2023-07-18T08:46:54.420Z,1232.00
2023-07-18T08:47:54.475Z,1229.00
2023-07-18T08:48:54.445Z,1236.00
2023-07-18T08:49:54.470Z,1235.00
2023-07-18T08:50:54.493Z,1274.00
2023-07-18T08:51:54.489Z,1282.00
2023-07-18T08:52:54.536Z,1289.00
2023-07-18T08:53:54.548Z,1302.00
2023-07-18T08:54:54.572Z,1305.00
2023-07-18T08:55:54.633Z,1300.00
2023-07-18T08:56:54.584Z,1291.00
2023-07-18T08:57:54.559Z,1310.00
2023-07-18T08:58:54.572Z,1280.00
2023-07-18T08:59:54.591Z,1295.00
2023-07-18T09:00:54.607Z,1327.00
2023-07-18T09:01:54.656Z,1320.00
2023-07-18T09:02:54.694Z,1316.00
2023-07-18T09:03:54.658Z,1333.00
2023-07-18T09:04:54.613Z,1332.00
2023-07-18T09:05:54.606Z,1355.00
2023-07-18T09:06:54.632Z,1343.00
2023-07-18T09:07:54.620Z,1337.00
2023-07-18T09:08:54.634Z,1337.00
2023-07-18T09:09:54.624Z,1342.00
2023-07-18T09:10:54.623Z,1348.00
2023-07-18T09:11:54.641Z,1324.00
2023-07-18T09:12:54.633Z,1299.00
2023-07-18T09:13:54.666Z,1312.00
2023-07-18T09:14:54.638Z,1325.00
2023-07-18T09:15:54.651Z,1315.00
2023-07-18T09:16:54.674Z,1290.00
2023-07-18T09:17:54.709Z,1302.00
2023-07-18T09:18:54.645Z,1275.00
2023-07-18T09:19:54.633Z,1311.00
2023-07-18T09:20:54.808Z,1301.00
2023-07-18T09:21:54.667Z,1291.00
2023-07-18T09:22:54.648Z,1247.00
2023-07-18T09:23:54.645Z,1242.00
2023-07-18T09:24:54.675Z,1246.00
2023-07-18T09:25:54.674Z,1256.00
2023-07-18T09:26:54.696Z,1260.00
2023-07-18T09:27:54.745Z,1234.00
2023-07-18T09:28:54.728Z,1269.00
2023-07-18T09:29:54.741Z,1232.00
2023-07-18T09:30:54.742Z,1206.00
2023-07-18T09:31:54.748Z,1216.00
2023-07-18T09:32:54.770Z,1233.00
2023-07-18T09:33:54.885Z,1248.00
2023-07-18T09:34:54.815Z,1259.00
2023-07-18T09:35:54.823Z,1248.00
2023-07-18T09:36:54.857Z,1217.00
2023-07-18T09:37:54.846Z,1221.00
2023-07-18T09:38:54.905Z,1227.00
2023-07-18T09:39:54.931Z,1199.00
2023-07-18T09:40:54.988Z,1239.00
2023-07-18T09:41:55.018Z,1206.00
2023-07-18T09:42:55.934Z,1245.00
2023-07-18T09:44:09.591Z,1282.00
2023-07-18T09:44:56.268Z,1279.00
2023-07-18T09:45:55.089Z,1277.00
2023-07-18T09:46:55.038Z,1292.00
2023-07-18T09:47:55.075Z,1302.00
2023-07-18T09:48:55.052Z,1316.00
2023-07-18T09:49:55.032Z,1351.00
2023-07-18T09:50:55.011Z,1369.00
2023-07-18T09:51:55.009Z,1361.00
2023-07-18T09:52:55.025Z,1327.00
2023-07-18T09:53:55.124Z,1338.00
2023-07-18T09:54:55.103Z,1339.00
2023-07-18T09:55:55.134Z,1336.00
2023-07-18T09:56:55.187Z,1316.00
2023-07-18T09:57:55.214Z,1335.00
2023-07-18T09:58:55.321Z,1326.00
2023-07-18T09:59:55.356Z,1338.00
2023-07-18T10:00:55.451Z,1340.00
2023-07-18T10:01:55.569Z,1358.00
2023-07-18T10:02:55.659Z,1369.00
2023-07-18T10:03:55.724Z,1347.00
2023-07-18T10:04:55.624Z,1338.00
2023-07-18T10:05:55.699Z,1351.00
2023-07-18T10:06:55.754Z,1338.00
2023-07-18T10:07:55.821Z,1343.00
2023-07-18T10:08:55.880Z,1340.00
2023-07-18T10:09:55.914Z,1320.00
2023-07-18T10:10:56.001Z,1346.00
2023-07-18T10:11:56.010Z,1357.00
2023-07-18T10:12:56.059Z,1324.00
2023-07-18T10:13:56.117Z,1340.00
2023-07-18T10:14:56.160Z,1334.00
2023-07-18T10:15:56.234Z,1343.00
2023-07-18T10:16:56.342Z,1346.00
2023-07-18T10:17:56.412Z,1319.00
2023-07-18T10:18:56.346Z,1295.00
2023-07-18T10:19:56.436Z,1316.00
2023-07-18T10:20:56.468Z,1316.00
2023-07-18T10:21:56.641Z,1277.00
2023-07-18T10:22:56.623Z,1293.00
2023-07-18T10:23:56.627Z,1305.00
2023-07-18T10:24:56.761Z,1272.00
2023-07-18T10:25:56.720Z,1256.00
2023-07-18T10:26:56.785Z,1240.00
2023-07-18T10:27:56.799Z,1281.00
2023-07-18T10:28:56.865Z,1266.00
2023-07-18T10:29:56.913Z,1247.00
2023-07-18T10:30:57.014Z,1238.00
2023-07-18T10:31:57.062Z,1250.00
2023-07-18T10:32:57.146Z,1220.00
2023-07-18T10:33:57.119Z,1215.00
2023-07-18T10:34:57.185Z,1194.00
2023-07-18T10:35:57.258Z,1192.00
2023-07-18T10:36:57.342Z,1204.00
2023-07-18T10:37:57.321Z,1214.00
2023-07-18T10:38:57.381Z,1181.00
2023-07-18T10:39:57.438Z,1186.00
2023-07-18T10:40:57.480Z,1170.00
2023-07-18T10:41:57.566Z,1155.00
2023-07-18T10:42:57.567Z,1167.00
2023-07-18T10:43:57.592Z,1134.00
2023-07-18T10:44:57.648Z,1140.00
2023-07-18T10:45:57.703Z,1119.00
2023-07-18T10:46:57.897Z,1138.00
2023-07-18T10:47:57.797Z,1140.00
2023-07-18T10:48:57.831Z,1106.00
2023-07-18T10:49:57.896Z,1154.00
2023-07-18T10:50:57.960Z,1137.00
2023-07-18T10:51:58.046Z,1132.00
2023-07-18T10:52:58.041Z,1147.00
2023-07-18T10:53:58.114Z,1097.00
2023-07-18T10:54:58.175Z,1095.00
2023-07-18T10:55:58.239Z,1132.00
2023-07-18T10:56:58.348Z,1141.00
2023-07-18T10:57:58.319Z,1119.00
2023-07-18T10:58:58.410Z,1150.00
2023-07-18T10:59:58.459Z,1116.00
2023-07-18T11:00:58.537Z,1114.00
2023-07-18T11:01:58.566Z,1114.00
2023-07-18T11:02:58.615Z,1091.00
2023-07-18T11:03:58.632Z,1088.00
2023-07-18T11:04:58.710Z,1088.00
2023-07-18T11:05:58.780Z,1133.00
2023-07-18T11:06:58.789Z,1104.00
2023-07-18T11:07:58.841Z,1086.00
2023-07-18T11:08:58.884Z,1089.00
2023-07-18T11:09:58.931Z,1074.00
2023-07-18T11:10:58.965Z,1052.00
2023-07-18T11:11:59.081Z,1089.00
2023-07-18T11:12:59.102Z,1109.00
2023-07-18T11:13:59.137Z,1092.00
2023-07-18T11:15:00.821Z,1085.00
2023-07-18T11:15:59.288Z,1055.00
2023-07-18T11:16:59.500Z,1041.00
2023-07-18T11:17:59.431Z,1011.00
2023-07-18T11:18:59.424Z,1015.00
2023-07-18T11:19:59.477Z,1038.00
2023-07-18T11:21:01.769Z,1022.00
2023-07-18T11:21:59.526Z,1017.00
2023-07-18T11:22:59.557Z,1035.00
2023-07-18T11:23:59.521Z,994.00
2023-07-18T11:24:59.515Z,1016.00
2023-07-18T11:25:59.483Z,996.00
2023-07-18T11:26:59.500Z,987.00
2023-07-18T11:27:59.480Z,1011.00
2023-07-18T11:28:59.471Z,1011.00
2023-07-18T11:29:59.453Z,994.00
2023-07-18T11:30:59.573Z,1004.00
2023-07-18T11:31:59.486Z,991.00
2023-07-18T11:32:59.517Z,983.00
2023-07-18T11:33:59.454Z,1003.00
2023-07-18T11:34:59.453Z,1012.00
2023-07-18T11:35:59.452Z,1008.00
2023-07-18T11:36:59.459Z,990.00
2023-07-18T11:37:59.429Z,937.00
2023-07-18T11:38:59.425Z,993.00
2023-07-18T11:39:59.393Z,985.00
2023-07-18T11:40:59.385Z,950.00
2023-07-18T11:41:59.378Z,983.00
2023-07-18T11:42:59.434Z,968.00
2023-07-18T11:43:59.385Z,950.00
2023-07-18T11:44:59.368Z,933.00
2023-07-18T11:45:59.373Z,943.00
2023-07-18T11:46:59.351Z,964.00
2023-07-18T11:47:59.435Z,941.00
2023-07-18T11:48:59.519Z,908.00
2023-07-18T11:49:59.340Z,962.00
2023-07-18T11:50:59.346Z,961.00
2023-07-18T11:51:59.332Z,958.00
2023-07-18T11:52:59.363Z,989.00
2023-07-18T11:53:59.318Z,980.00
2023-07-18T11:54:59.301Z,984.00
2023-07-18T11:55:59.303Z,982.00
2023-07-18T11:56:59.339Z,966.00
2023-07-18T11:57:59.323Z,961.00
2023-07-18T11:58:59.295Z,952.00
2023-07-18T11:59:59.254Z,954.00
2023-07-18T12:00:59.280Z,968.00
2023-07-18T12:01:59.346Z,969.00
2023-07-18T12:02:59.389Z,941.00
2023-07-18T12:03:59.453Z,937.00
2023-07-18T12:04:59.255Z,941.00
2023-07-18T12:05:59.224Z,924.00
2023-07-18T12:06:59.239Z,913.00
2023-07-18T12:07:59.223Z,905.00
2023-07-18T12:08:59.220Z,883.00
2023-07-18T12:09:59.207Z,891.00
2023-07-18T12:11:08.905Z,931.00
2023-07-18T12:12:00.209Z,900.00
2023-07-18T12:12:59.206Z,855.00
2023-07-18T12:13:59.174Z,867.00
2023-07-18T12:14:59.179Z,853.00
2023-07-18T12:15:59.181Z,863.00
2023-07-18T12:16:59.241Z,844.00
2023-07-18T12:17:59.236Z,835.00